createdAt,value
2022-08-17T00:01:33.350Z,47.77
2022-08-17T00:04:19.390Z,47.99
2022-08-17T00:06:49.240Z,47.85
2022-08-17T00:09:19.057Z,47.61
2022-08-17T00:12:40.695Z,47.53
2022-08-17T00:14:35.174Z,47.88
2022-08-17T00:17:03.773Z,47.88
2022-08-17T00:19:32.462Z,47.64
2022-08-17T00:22:32.989Z,47.53
2022-08-17T00:24:47.320Z,47.93
2022-08-17T00:27:13.933Z,47.84
2022-08-17T00:29:40.610Z,47.79
2022-08-17T00:33:15.603Z,47.50
2022-08-17T00:34:53.758Z,47.82
2022-08-17T00:37:20.319Z,47.65
2022-08-17T00:39:46.908Z,47.48
2022-08-17T00:42:18.823Z,47.63
2022-08-17T00:44:46.237Z,47.42
2022-08-17T00:47:12.789Z,47.37
2022-08-17T00:49:39.563Z,47.68
2022-08-17T00:52:15.526Z,47.60
2022-08-17T00:54:46.524Z,47.60
2022-08-17T00:57:18.549Z,47.63
2022-08-17T01:00:01.909Z,47.71
2022-08-17T01:02:34.936Z,47.42
2022-08-17T01:05:14.881Z,47.36
2022-08-17T01:07:42.864Z,47.73
2022-08-17T01:10:58.881Z,47.57
2022-08-17T01:13:02.513Z,47.54
2022-08-17T01:15:36.493Z,47.35
2022-08-17T01:18:05.400Z,47.47
2022-08-17T01:20:32.539Z,47.59
2022-08-17T01:23:19.867Z,47.62
2022-08-17T01:25:53.386Z,47.64
2022-08-17T01:28:52.251Z,47.28
2022-08-17T01:31:09.243Z,47.25
2022-08-17T01:33:36.549Z,47.72
2022-08-17T01:36:04.173Z,47.32
2022-08-17T01:38:31.919Z,47.61
2022-08-17T01:41:07.922Z,47.66
2022-08-17T01:43:57.296Z,47.89
2022-08-17T01:46:28.254Z,47.77
2022-08-17T01:48:56.461Z,47.30
2022-08-17T01:51:25.937Z,47.71
2022-08-17T01:53:57.540Z,47.47
2022-08-17T01:56:25.423Z,47.56
2022-08-17T01:58:52.831Z,47.85
2022-08-17T02:01:22.825Z,47.65
2022-08-17T02:03:56.203Z,47.26
2022-08-17T02:06:47.051Z,47.54
2022-08-17T02:09:19.215Z,47.87
2022-08-17T02:11:49.929Z,47.62
2022-08-17T02:14:16.761Z,47.82
2022-08-17T02:16:43.681Z,47.68
2022-08-17T02:19:15.600Z,48.20
2022-08-17T02:21:44.795Z,47.76
2022-08-17T02:25:00.288Z,47.79
2022-08-17T02:27:05.960Z,47.94
2022-08-17T02:29:32.760Z,48.14
2022-08-17T02:32:00.269Z,47.89
2022-08-17T02:34:27.522Z,48.43
2022-08-17T02:36:54.090Z,48.18
2022-08-17T02:39:20.630Z,48.01
2022-08-17T02:41:47.383Z,48.28
2022-08-17T02:44:13.938Z,48.48
2022-08-17T02:47:00.857Z,48.54
2022-08-17T02:49:27.408Z,48.47
2022-08-17T02:51:53.894Z,48.39
2022-08-17T02:54:40.076Z,48.66
2022-08-17T02:57:06.880Z,48.79
2022-08-17T02:59:33.391Z,49.24
2022-08-17T03:01:59.927Z,49.25
2022-08-17T03:04:26.484Z,49.51
2022-08-17T03:06:53.089Z,49.56
2022-08-17T03:09:19.596Z,49.64
2022-08-17T03:11:46.147Z,49.97
2022-08-17T03:14:13.157Z,49.28
2022-08-17T03:16:41.008Z,49.93
2022-08-17T03:19:08.999Z,51.29
2022-08-17T03:21:35.576Z,50.30
2022-08-17T03:24:02.426Z,50.41
2022-08-17T03:26:35.486Z,50.13
2022-08-17T03:29:02.020Z,50.20
2022-08-17T03:31:28.647Z,50.73
2022-08-17T03:33:56.261Z,51.17
2022-08-17T03:36:23.190Z,50.21
2022-08-17T03:38:49.695Z,50.61
2022-08-17T03:41:17.688Z,50.74
2022-08-17T03:43:44.195Z,50.60
2022-08-17T03:46:35.145Z,50.94
2022-08-17T03:49:26.914Z,50.53
2022-08-17T03:52:13.505Z,50.14
2022-08-17T03:55:00.619Z,50.06
2022-08-17T03:57:27.482Z,50.35
2022-08-17T03:59:55.278Z,50.51
2022-08-17T04:02:25.599Z,50.63
2022-08-17T04:04:53.806Z,50.99
2022-08-17T04:07:22.862Z,51.02
2022-08-17T04:09:49.465Z,50.48
2022-08-17T04:12:18.540Z,50.88
2022-08-17T04:14:53.503Z,50.94
2022-08-17T04:17:26.862Z,51.19
2022-08-17T04:19:54.488Z,50.82
2022-08-17T04:22:30.753Z,51.04
2022-08-17T04:25:05.205Z,50.93
2022-08-17T04:27:31.832Z,51.07
2022-08-17T04:29:58.713Z,51.23
2022-08-17T04:32:59.337Z,50.85
2022-08-17T04:35:11.906Z,51.17
2022-08-17T04:37:38.413Z,50.64
2022-08-17T04:40:28.606Z,50.92
2022-08-17T04:43:04.180Z,51.54
2022-08-17T04:45:32.361Z,51.49
2022-08-17T04:48:00.429Z,51.19
2022-08-17T04:50:27.489Z,50.67
2022-08-17T04:52:54.053Z,51.47
2022-08-17T04:55:20.772Z,50.68
2022-08-17T04:57:47.293Z,51.39
2022-08-17T05:00:14.190Z,50.76
2022-08-17T05:02:50.947Z,51.49
2022-08-17T05:05:22.933Z,51.11
2022-08-17T05:07:58.788Z,51.43
2022-08-17T05:10:28.240Z,50.84
2022-08-17T05:13:07.137Z,51.18
2022-08-17T05:15:36.214Z,50.81
2022-08-17T05:18:03.662Z,50.89
2022-08-17T05:20:30.406Z,50.82
2022-08-17T05:22:59.643Z,51.14
2022-08-17T05:25:32.763Z,50.88
2022-08-17T05:28:02.206Z,51.60
2022-08-17T05:30:28.855Z,50.96
2022-08-17T05:33:00.503Z,51.57
2022-08-17T05:35:29.609Z,51.70
2022-08-17T05:37:57.559Z,51.31
2022-08-17T05:40:25.983Z,51.56
2022-08-17T05:43:10.831Z,52.06
2022-08-17T05:46:02.088Z,52.28
2022-08-17T05:48:35.536Z,51.31
2022-08-17T05:51:09.450Z,51.67
2022-08-17T05:54:04.453Z,52.04
2022-08-17T05:56:34.032Z,51.74
2022-08-17T05:59:13.586Z,52.12
2022-08-17T06:02:05.323Z,51.38
2022-08-17T06:04:40.674Z,52.07
2022-08-17T06:07:28.352Z,52.80
2022-08-17T06:10:10.872Z,52.71
2022-08-17T06:12:49.820Z,52.70
2022-08-17T06:15:34.489Z,53.25
2022-08-17T06:18:05.642Z,53.16
2022-08-17T06:20:53.180Z,53.43
2022-08-17T06:23:42.809Z,53.49
2022-08-17T06:26:17.559Z,53.14
2022-08-17T06:28:53.150Z,53.38
2022-08-17T06:31:22.535Z,53.68
2022-08-17T06:33:50.425Z,53.50
2022-08-17T06:36:32.785Z,54.33
2022-08-17T06:39:08.095Z,54.34
2022-08-17T06:41:51.061Z,54.82
2022-08-17T06:44:43.682Z,54.56
2022-08-17T06:47:28.726Z,54.73
2022-08-17T06:50:01.500Z,54.86
2022-08-17T06:52:45.763Z,53.48
2022-08-17T06:55:21.342Z,55.32
2022-08-17T06:57:52.482Z,55.07
2022-08-17T07:00:23.850Z,54.30
2022-08-17T07:03:06.235Z,54.71
2022-08-17T07:05:38.851Z,54.23
2022-08-17T07:08:35.798Z,55.19
2022-08-17T07:11:09.924Z,54.02
2022-08-17T07:13:43.263Z,54.81
2022-08-17T07:16:24.860Z,54.49
2022-08-17T07:18:54.674Z,54.32
2022-08-17T07:21:51.959Z,55.60
2022-08-17T07:24:35.494Z,55.98
2022-08-17T07:27:37.111Z,55.62
2022-08-17T07:30:10.827Z,55.72
2022-08-17T07:32:51.144Z,55.64
2022-08-17T07:35:37.754Z,56.11
2022-08-17T07:38:56.439Z,57.08
2022-08-17T07:41:23.274Z,56.04
2022-08-17T07:43:52.527Z,55.77
2022-08-17T07:46:43.927Z,56.45
2022-08-17T07:49:10.392Z,54.98
2022-08-17T07:51:39.265Z,56.45
2022-08-17T07:54:29.523Z,55.72
2022-08-17T07:57:00.240Z,56.03
2022-08-17T07:59:33.236Z,56.74
2022-08-17T08:02:06.201Z,55.12
2022-08-17T08:04:59.829Z,55.97
2022-08-17T08:07:31.968Z,56.85
2022-08-17T08:10:07.588Z,56.52
2022-08-17T08:12:36.298Z,56.81
2022-08-17T08:15:12.598Z,56.01
2022-08-17T08:17:50.055Z,57.08
2022-08-17T08:20:37.850Z,55.42
2022-08-17T08:23:19.087Z,56.26
2022-08-17T08:26:18.463Z,56.11
2022-08-17T08:29:28.103Z,56.02
2022-08-17T08:32:20.457Z,55.58
2022-08-17T08:35:02.878Z,55.79
2022-08-17T08:37:55.905Z,55.49
2022-08-17T08:40:44.067Z,56.01
2022-08-17T08:43:10.709Z,54.54
2022-08-17T08:46:01.928Z,55.91
2022-08-17T08:48:53.043Z,54.43
2022-08-17T08:51:52.779Z,55.14
2022-08-17T08:54:48.306Z,55.72
2022-08-17T08:57:34.142Z,55.06
2022-08-17T09:00:19.065Z,54.90
2022-08-17T09:02:54.456Z,55.42
2022-08-17T09:05:42.740Z,55.47
2022-08-17T09:08:09.171Z,54.16
2022-08-17T09:10:44.826Z,54.78
2022-08-17T09:13:22.110Z,55.14
2022-08-17T09:15:57.311Z,54.27
2022-08-17T09:19:03.034Z,54.80
2022-08-17T09:21:27.116Z,54.84
2022-08-17T09:24:23.884Z,54.81
2022-08-17T09:26:59.389Z,55.13
2022-08-17T09:29:29.521Z,54.15
2022-08-17T09:31:59.615Z,54.25
2022-08-17T09:34:43.573Z,55.37
2022-08-17T09:37:25.843Z,54.59
2022-08-17T09:40:09.597Z,55.03
2022-08-17T09:42:45.452Z,54.80
2022-08-17T09:45:30.985Z,53.94
2022-08-17T09:48:18.165Z,54.78
2022-08-17T09:51:05.453Z,53.86
2022-08-17T09:53:36.779Z,54.14
2022-08-17T09:56:08.981Z,54.44
2022-08-17T09:59:04.663Z,53.68
2022-08-17T10:01:43.103Z,54.33
2022-08-17T10:04:23.809Z,54.76
2022-08-17T10:07:03.574Z,54.17
2022-08-17T10:09:46.339Z,54.78
2022-08-17T10:12:29.797Z,54.15
2022-08-17T10:15:22.494Z,54.42
2022-08-17T10:18:08.808Z,54.50
2022-08-17T10:21:26.451Z,54.38
2022-08-17T10:24:28.329Z,54.35
2022-08-17T10:26:57.613Z,53.91
2022-08-17T10:29:49.058Z,54.24
2022-08-17T10:32:37.400Z,54.04
2022-08-17T10:35:18.639Z,53.95
2022-08-17T10:38:21.531Z,53.82
2022-08-17T10:41:01.009Z,53.59
2022-08-17T10:43:36.868Z,53.91
2022-08-17T10:46:30.695Z,54.43
2022-08-17T10:49:17.095Z,54.12
2022-08-17T10:51:47.951Z,54.08
2022-08-17T10:54:58.645Z,54.32
2022-08-17T10:57:34.680Z,54.40
2022-08-17T11:00:28.434Z,54.58
2022-08-17T11:02:57.497Z,54.23
2022-08-17T11:05:58.923Z,55.10
2022-08-17T11:08:56.584Z,55.51
2022-08-17T11:11:38.417Z,55.66
2022-08-17T11:14:34.831Z,55.19
2022-08-17T11:17:19.343Z,55.56
2022-08-17T11:20:00.709Z,55.34
2022-08-17T11:22:45.812Z,54.85
2022-08-17T11:25:14.909Z,54.76
2022-08-17T11:27:44.659Z,55.02
2022-08-17T11:30:15.033Z,54.24
2022-08-17T11:32:54.560Z,54.75
2022-08-17T11:35:21.569Z,54.18
2022-08-17T11:37:48.029Z,54.05
2022-08-17T11:40:20.628Z,54.05
2022-08-17T11:43:15.543Z,54.42
2022-08-17T11:46:05.263Z,54.06
2022-08-17T11:49:11.592Z,54.83
2022-08-17T11:52:29.904Z,54.92
2022-08-17T11:55:17.757Z,55.30
2022-08-17T11:57:59.767Z,54.78
2022-08-17T12:00:44.647Z,54.92
2022-08-17T12:03:36.926Z,54.56
2022-08-17T12:06:07.376Z,54.83
2022-08-17T12:08:43.350Z,54.25
2022-08-17T12:12:10.951Z,55.21
2022-08-17T12:14:51.720Z,54.58
2022-08-17T12:17:39.317Z,54.76
2022-08-17T12:20:29.769Z,54.88
2022-08-17T12:23:11.194Z,54.46
2022-08-17T12:25:45.468Z,54.43
2022-08-17T12:28:27.151Z,54.51
2022-08-17T12:30:56.300Z,54.17
2022-08-17T12:33:28.511Z,53.92
2022-08-17T12:36:05.235Z,54.67
2022-08-17T12:38:36.120Z,54.46
2022-08-17T12:41:25.049Z,55.09
2022-08-17T12:44:12.527Z,55.13
2022-08-17T12:46:54.418Z,55.79
2022-08-17T12:49:34.270Z,55.52
2022-08-17T12:52:06.798Z,54.79
2022-08-17T12:54:38.123Z,55.35
2022-08-17T12:57:12.439Z,55.08
2022-08-17T12:59:53.194Z,55.53
2022-08-17T13:02:44.376Z,55.36
2022-08-17T13:05:42.043Z,55.57
2022-08-17T13:08:20.081Z,55.10
2022-08-17T13:10:58.582Z,55.31
2022-08-17T13:13:27.959Z,54.24
2022-08-17T13:16:01.086Z,55.03
2022-08-17T13:18:38.318Z,55.84
2022-08-17T13:21:06.854Z,54.83
2022-08-17T13:23:33.565Z,54.71
2022-08-17T13:26:05.316Z,55.53
2022-08-17T13:28:36.073Z,55.27
2022-08-17T13:31:33.657Z,55.53
2022-08-17T13:34:25.390Z,55.77
2022-08-17T13:37:32.547Z,56.15
2022-08-17T13:40:10.205Z,55.54
2022-08-17T13:42:52.023Z,56.10
2022-08-17T13:45:36.156Z,56.20
2022-08-17T13:48:17.400Z,56.10
2022-08-17T13:50:56.065Z,56.59
2022-08-17T13:53:33.127Z,56.40
2022-08-17T13:56:07.351Z,55.86
2022-08-17T13:59:00.159Z,56.14
2022-08-17T14:01:53.628Z,56.48
2022-08-17T14:04:24.199Z,56.36
2022-08-17T14:06:57.806Z,56.54
2022-08-17T14:09:36.978Z,56.42
2022-08-17T14:12:06.848Z,55.82
2022-08-17T14:14:33.362Z,55.79
2022-08-17T14:16:59.989Z,56.05
2022-08-17T14:19:26.926Z,56.10
2022-08-17T14:21:58.806Z,56.00
2022-08-17T14:24:31.533Z,56.39
2022-08-17T14:26:59.860Z,56.16
2022-08-17T14:29:29.308Z,55.86
2022-08-17T14:31:57.574Z,56.18
2022-08-17T14:34:25.454Z,56.16
2022-08-17T14:36:52.384Z,56.33
2022-08-17T14:39:19.769Z,56.29
2022-08-17T14:41:46.608Z,56.41
2022-08-17T14:44:13.331Z,56.47
2022-08-17T14:46:41.129Z,56.29
2022-08-17T14:49:09.138Z,56.66
2022-08-17T14:51:39.376Z,56.25
2022-08-17T14:54:11.531Z,56.23
2022-08-17T14:57:04.657Z,57.34
2022-08-17T14:59:44.512Z,56.47
2022-08-17T15:02:11.262Z,56.43
2022-08-17T15:04:41.988Z,56.68
2022-08-17T15:07:11.543Z,56.66
2022-08-17T15:09:38.089Z,56.62
2022-08-17T15:12:08.221Z,57.10
2022-08-17T15:14:36.123Z,57.36
2022-08-17T15:17:03.809Z,56.75
2022-08-17T15:19:30.674Z,56.90
2022-08-17T15:21:57.383Z,56.65
2022-08-17T15:24:23.893Z,57.17
2022-08-17T15:26:51.419Z,57.30
2022-08-17T15:29:17.974Z,56.94
2022-08-17T15:31:44.540Z,57.24
2022-08-17T15:34:11.061Z,57.54
2022-08-17T15:36:37.812Z,57.01
2022-08-17T15:39:07.824Z,56.74
2022-08-17T15:41:34.887Z,57.29
2022-08-17T15:44:01.424Z,57.56
2022-08-17T15:46:28.334Z,57.19
2022-08-17T15:48:59.935Z,58.05
2022-08-17T15:51:30.456Z,58.00
2022-08-17T15:54:04.410Z,58.64
2022-08-17T15:56:44.241Z,57.42
2022-08-17T15:59:10.823Z,58.17
2022-08-17T16:03:01.734Z,57.74
2022-08-17T16:04:29.701Z,57.68
2022-08-17T16:06:57.354Z,57.71
2022-08-17T16:09:23.884Z,57.86
2022-08-17T16:11:53.645Z,57.70
2022-08-17T16:14:22.607Z,57.94
2022-08-17T16:16:50.610Z,57.60
2022-08-17T16:19:17.225Z,57.68
2022-08-17T16:21:43.765Z,57.62
2022-08-17T16:24:13.213Z,57.86
2022-08-17T16:26:40.345Z,57.92
2022-08-17T16:29:07.789Z,57.56
2022-08-17T16:31:36.086Z,57.70
2022-08-17T16:34:17.371Z,57.58
2022-08-17T16:36:55.473Z,58.56
2022-08-17T16:39:25.482Z,57.93
2022-08-17T16:41:51.983Z,58.23
2022-08-17T16:44:21.107Z,58.10
2022-08-17T16:46:48.710Z,57.88
2022-08-17T16:49:35.489Z,57.33
2022-08-17T16:52:05.442Z,57.68
2022-08-17T16:54:32.644Z,57.56
2022-08-17T16:56:59.156Z,58.00
2022-08-17T16:59:31.120Z,57.91
2022-08-17T17:02:10.796Z,58.00
2022-08-17T17:05:03.121Z,58.49
2022-08-17T17:07:33.677Z,57.38
2022-08-17T17:10:14.245Z,58.06
2022-08-17T17:13:02.594Z,57.44
2022-08-17T17:15:46.031Z,58.47
2022-08-17T17:18:15.362Z,57.55
2022-08-17T17:20:54.730Z,58.16
2022-08-17T17:23:33.926Z,57.17
2022-08-17T17:26:08.806Z,57.50
2022-08-17T17:29:00.162Z,58.54
2022-08-17T17:31:38.444Z,58.06
2022-08-17T17:34:07.715Z,57.44
2022-08-17T17:36:48.452Z,57.92
2022-08-17T17:39:43.596Z,58.02
2022-08-17T17:42:14.553Z,57.65
2022-08-17T17:45:04.074Z,58.24
2022-08-17T17:47:31.489Z,57.66
2022-08-17T17:50:01.003Z,57.63
2022-08-17T17:52:40.962Z,57.86
2022-08-17T17:55:33.608Z,58.24
2022-08-17T17:58:02.933Z,57.84
2022-08-17T18:00:39.779Z,57.82
2022-08-17T18:03:31.093Z,58.33
2022-08-17T18:06:06.362Z,58.03
2022-08-17T18:09:06.323Z,58.43
2022-08-17T18:11:45.231Z,57.99
2022-08-17T18:14:32.229Z,58.03
2022-08-17T18:17:00.536Z,57.32
2022-08-17T18:19:28.836Z,57.18
2022-08-17T18:22:14.469Z,58.08
2022-08-17T18:24:44.414Z,57.13
2022-08-17T18:27:38.279Z,57.70
2022-08-17T18:30:10.757Z,57.58
2022-08-17T18:32:46.502Z,57.71
2022-08-17T18:35:14.226Z,57.10
2022-08-17T18:37:45.572Z,57.65
2022-08-17T18:40:26.457Z,57.18
2022-08-17T18:43:27.127Z,57.14
2022-08-17T18:45:56.148Z,56.58
2022-08-17T18:48:52.710Z,57.46
2022-08-17T18:51:39.850Z,57.28
2022-08-17T18:54:09.448Z,56.47
2022-08-17T18:56:43.307Z,56.87
2022-08-17T18:59:26.919Z,57.14
2022-08-17T19:01:58.214Z,57.11
2022-08-17T19:04:28.394Z,56.91
2022-08-17T19:07:06.874Z,56.77
2022-08-17T19:09:37.009Z,56.34
2022-08-17T19:12:08.209Z,56.78
2022-08-17T19:14:35.619Z,56.22
2022-08-17T19:17:11.932Z,56.98
2022-08-17T19:19:55.977Z,57.43
2022-08-17T19:22:30.992Z,56.63
2022-08-17T19:25:16.068Z,57.64
2022-08-17T19:27:57.837Z,56.94
2022-08-17T19:30:24.974Z,56.43
2022-08-17T19:32:53.041Z,56.46
2022-08-17T19:35:24.759Z,56.13
2022-08-17T19:38:00.728Z,56.38
2022-08-17T19:40:51.576Z,56.25
2022-08-17T19:43:28.535Z,56.30
2022-08-17T19:46:07.160Z,56.30
2022-08-17T19:48:48.777Z,56.78
2022-08-17T19:51:30.358Z,56.52
2022-08-17T19:54:15.051Z,56.25
2022-08-17T19:56:47.636Z,55.54
2022-08-17T19:59:20.144Z,56.27
2022-08-17T20:01:54.712Z,56.22
2022-08-17T20:04:35.497Z,56.20
2022-08-17T20:07:08.128Z,56.24
2022-08-17T20:09:38.306Z,55.88
2022-08-17T20:12:10.306Z,55.57
2022-08-17T20:15:07.341Z,55.85
2022-08-17T20:17:43.356Z,55.85
2022-08-17T20:20:48.502Z,55.92
2022-08-17T20:23:49.071Z,55.81
2022-08-17T20:26:41.408Z,56.00
2022-08-17T20:29:18.501Z,55.36
2022-08-17T20:32:06.219Z,55.81
2022-08-17T20:34:38.099Z,55.61
2022-08-17T20:37:31.179Z,55.65
2022-08-17T20:39:57.666Z,55.47
2022-08-17T20:42:24.356Z,55.27
2022-08-17T20:44:54.515Z,55.47
2022-08-17T20:48:15.133Z,55.62
2022-08-17T20:50:43.484Z,55.60
2022-08-17T20:53:15.374Z,55.48
2022-08-17T20:55:52.312Z,55.27
2022-08-17T20:58:30.869Z,55.59
2022-08-17T21:00:57.974Z,55.25
2022-08-17T21:03:25.294Z,55.05
2022-08-17T21:05:52.627Z,55.14
2022-08-17T21:08:53.231Z,55.08
2022-08-17T21:11:57.113Z,55.40
2022-08-17T21:14:29.351Z,55.50
2022-08-17T21:17:22.221Z,55.39
2022-08-17T21:20:10.511Z,55.39
2022-08-17T21:23:22.696Z,55.40
2022-08-17T21:26:09.808Z,55.66
2022-08-17T21:29:00.842Z,55.39
2022-08-17T21:31:43.119Z,55.15
2022-08-17T21:34:16.635Z,55.46
2022-08-17T21:36:45.183Z,55.06
2022-08-17T21:39:14.338Z,55.38
2022-08-17T21:41:48.133Z,55.58
2022-08-17T21:44:17.634Z,55.46
2022-08-17T21:46:46.924Z,55.18
2022-08-17T21:49:19.541Z,55.26
2022-08-17T21:51:54.087Z,55.56
2022-08-17T21:54:39.851Z,55.57
2022-08-17T21:57:16.774Z,55.92
2022-08-17T21:59:44.212Z,55.51
2022-08-17T22:02:21.576Z,55.92
2022-08-17T22:05:11.121Z,55.71
2022-08-17T22:07:50.561Z,55.67
2022-08-17T22:10:35.328Z,55.99
2022-08-17T22:13:29.324Z,55.84
2022-08-17T22:16:28.400Z,55.93
2022-08-17T22:18:58.132Z,54.99
2022-08-17T22:21:25.189Z,55.24
2022-08-17T22:24:06.086Z,55.66
2022-08-17T22:26:59.442Z,55.84
2022-08-17T22:29:53.317Z,55.85
2022-08-17T22:32:44.597Z,55.84
2022-08-17T22:35:35.921Z,55.84
2022-08-17T22:38:20.737Z,55.92
2022-08-17T22:40:53.867Z,55.58
2022-08-17T22:43:26.584Z,55.81
2022-08-17T22:45:56.714Z,55.52
2022-08-17T22:48:27.963Z,55.46
2022-08-17T22:51:13.881Z,55.82
2022-08-17T22:54:09.955Z,55.93
2022-08-17T22:56:55.997Z,55.58
2022-08-17T22:59:39.264Z,55.92
2022-08-17T23:02:30.123Z,55.62
2022-08-17T23:08:01.692Z,55.01
2022-08-17T23:13:13.892Z,54.91
2022-08-17T23:15:41.008Z,55.20
2022-08-17T23:18:07.997Z,54.78
2022-08-17T23:20:37.184Z,55.11
2022-08-17T23:23:06.787Z,55.06
2022-08-17T23:25:34.654Z,54.69
2022-08-17T23:28:03.260Z,55.04
2022-08-17T23:30:31.782Z,54.76
2022-08-17T23:33:01.260Z,54.65
2022-08-17T23:35:39.354Z,54.56
2022-08-17T23:38:11.940Z,54.49
2022-08-17T23:40:39.622Z,54.54
2022-08-17T23:43:23.356Z,54.59
2022-08-17T23:45:52.599Z,54.66
2022-08-17T23:48:36.189Z,54.43
2022-08-17T23:51:25.616Z,54.78
2022-08-17T23:53:56.586Z,54.83
2022-08-17T23:56:25.743Z,54.31
2022-08-17T23:58:54.800Z,54.61
